Bookmark and Share
Track history (hours):
 

Gambler

Last reported at 2014-Apr-05 15:33 UTC. Time now 2014-Apr-17 06:45 UTC.
Position N 59°14' W 003°37'.
Warning: this ship's position is 11 days out of date.

Length 70 m; draft 6 m.

Type: Fishing. MMSI: 258412000.

NotesDate/timePositionNaut miles runAvg speedWind from/ knotsBaromVisibWave heightAir tempDewpointWater temp
2014-Apr-05 15:33N 59°14' W 003°37'1212.0
2014-Apr-05 14:33N 59°08' W 003°58'1211.8
2014-Apr-05 13:33N 59°02' W 004°17'1212.1
2014-Apr-05 12:33N 58°56' W 004°38'3712.2
2014-Apr-05 09:33N 58°42' W 005°43'2712.1
2014-Apr-05 07:19N 58°32' W 006°31'  
2014-Apr-03 03:07N 58°37' W 006°11'5511.1
2014-Apr-02 22:09N 58°57' W 004°32'710.6
2014-Apr-02 21:32N 59°00' W 004°21'1110.8
2014-Apr-02 20:34N 59°06' W 004°04'1211.6
2014-Apr-02 19:33N 59°13' W 003°45'1211.9
2014-Apr-02 18:33N 59°18' W 003°25'17911.8
2014-Apr-02 03:27N 60°54' E 001°38'9311.4
2014-Apr-01 19:16N 61°45' E 004°21'811.2
2014-Apr-01 18:32N 61°49' E 004°36'7 0.3
2014-Mar-31 21:18N 61°52' E 004°48'810.5
2014-Mar-31 20:33N 61°48' E 004°35'1010.5
2014-Mar-31 19:33N 61°41' E 004°18'27110.8
2014-Mar-30 18:34N 59°14' W 003°24'1211.6
2014-Mar-30 17:34N 59°07' W 003°42'1111.1
2014-Mar-30 16:33N 59°01' W 004°00'1110.6
2014-Mar-30 15:34N 58°55' W 004°17'6310.2
2014-Mar-30 09:25N 58°12' W 005°45'  
2014-Mar-26 16:26N 54°40' W 010°11'  

Dump ship's entire track history

sailing weather and tide predictions

Gambler — LELC — position and weather